Terminal Aerodrome Forecast
Issued by NWS

Home | Current Version | Previous Version | Text Only | Print | Product List | Glossary On
Versions: 1 2 3 4 5 6 7 8 9 10 11 12 13 14 15 16 17
000
FTUS41 KBGM 190544
TAFELM
TAF
KELM 190544Z 1906/2006 22012G20KT P6SM OVC020 WS020/20045KT
      TEMPO 1907/1909 27016G28KT 3SM -SHRA OVC015
     FM190900 28017G32KT P6SM -SHRA OVC020
     FM191500 29020G40KT P6SM BKN050
     FM192100 29014G31KT 3SM -SHSNRA OVC025
     FM200100 29013G25KT P6SM BKN040=

USA.gov is the U.S. government's official web portal to all federal, state and local government web resources and services.